createdAt,value
2022-11-14T00:00:50.963Z,99820.78
2022-11-14T00:03:36.984Z,99818.59
2022-11-14T00:06:22.501Z,99822.41
2022-11-14T00:09:08.125Z,99815.59
2022-11-14T00:11:53.782Z,99818.69
2022-11-14T00:14:40.685Z,99820.16
2022-11-14T00:17:26.894Z,99820.91
2022-11-14T00:20:13.017Z,99821.88
2022-11-14T00:22:58.779Z,99818.13
2022-11-14T00:25:46.249Z,99820.00
2022-11-14T00:28:32.172Z,99825.69
2022-11-14T00:31:19.510Z,99824.22
2022-11-14T00:34:05.320Z,99825.59
2022-11-14T00:36:50.829Z,99819.00
2022-11-14T00:39:36.705Z,99822.81
2022-11-14T00:42:22.685Z,99822.09
2022-11-14T00:45:10.143Z,99811.88
2022-11-14T00:47:56.790Z,99820.84
2022-11-14T00:50:43.629Z,99816.94
2022-11-14T00:53:28.821Z,99818.63
2022-11-14T00:56:14.202Z,99811.88
2022-11-14T00:58:59.916Z,99804.28
2022-11-14T01:01:45.375Z,99815.69
2022-11-14T01:04:32.922Z,99803.13
2022-11-14T01:07:18.566Z,99800.63
2022-11-14T01:10:06.122Z,99798.75
2022-11-14T01:12:52.026Z,99800.97
2022-11-14T01:15:39.802Z,99793.47
2022-11-14T01:18:26.198Z,99791.16
2022-11-14T01:21:14.786Z,99785.97
2022-11-14T01:24:00.425Z,99781.66
2022-11-14T01:26:46.527Z,99784.25
2022-11-14T01:29:32.571Z,99793.09
2022-11-14T01:32:18.503Z,99794.00
2022-11-14T01:35:04.896Z,99791.00
2022-11-14T01:37:51.715Z,99776.19
2022-11-14T01:40:42.166Z,99779.06
2022-11-14T01:43:32.450Z,99776.00
2022-11-14T01:46:23.743Z,99771.44
2022-11-14T01:49:19.006Z,99775.91
2022-11-14T01:52:10.334Z,99770.59
2022-11-14T01:55:01.056Z,99766.59
2022-11-14T01:57:49.521Z,99753.72
2022-11-14T02:00:35.196Z,99746.63
2022-11-14T02:03:21.795Z,99739.41
2022-11-14T02:06:13.017Z,99744.56
2022-11-14T02:09:02.070Z,99743.75
2022-11-14T02:11:51.005Z,99743.59
2022-11-14T02:14:38.516Z,99734.41
2022-11-14T02:17:30.384Z,99732.31
2022-11-14T02:20:22.638Z,99734.19
2022-11-14T02:23:07.735Z,99724.31
2022-11-14T02:25:54.143Z,99726.13
2022-11-14T02:28:40.302Z,99720.16
2022-11-14T02:31:26.146Z,99706.72
2022-11-14T02:34:11.746Z,99710.84
2022-11-14T02:36:59.204Z,99709.75
2022-11-14T02:39:45.184Z,99700.38
2022-11-14T02:42:31.266Z,99714.91
2022-11-14T02:45:17.373Z,99716.44
2022-11-14T02:48:02.863Z,99716.56
2022-11-14T02:50:49.065Z,99713.25
2022-11-14T02:53:36.483Z,99721.94
2022-11-14T02:56:22.174Z,99719.56
2022-11-14T02:59:07.892Z,99717.31
2022-11-14T03:01:53.481Z,99719.81
2022-11-14T03:04:39.716Z,99716.09
2022-11-14T03:07:24.936Z,99711.69
2022-11-14T03:10:12.571Z,99731.50
2022-11-14T03:12:58.485Z,99733.44
2022-11-14T03:15:44.228Z,99728.97
2022-11-14T03:18:29.671Z,99730.66
2022-11-14T03:21:18.431Z,99727.13
2022-11-14T03:24:04.263Z,99725.13
2022-11-14T03:26:51.326Z,99717.53
2022-11-14T03:29:37.143Z,99708.13
2022-11-14T03:32:22.686Z,99709.97
2022-11-14T03:35:10.495Z,99704.31
2022-11-14T03:37:56.810Z,99699.63
2022-11-14T03:40:43.254Z,99696.84
2022-11-14T03:43:34.091Z,99695.38
2022-11-14T03:46:20.149Z,99695.28
2022-11-14T03:49:06.011Z,99687.09
2022-11-14T03:51:51.790Z,99683.94
2022-11-14T03:54:37.708Z,99676.88
2022-11-14T03:57:23.486Z,99671.41
2022-11-14T04:00:13.017Z,99656.69
2022-11-14T04:02:58.820Z,99664.69
2022-11-14T04:05:45.512Z,99657.13
2022-11-14T04:08:31.687Z,99659.22
2022-11-14T04:11:18.687Z,99667.03
2022-11-14T04:14:04.710Z,99674.53
2022-11-14T04:16:52.159Z,99680.16
2022-11-14T04:19:38.238Z,99682.00
2022-11-14T04:22:24.180Z,99693.66
2022-11-14T04:25:10.143Z,99697.03
2022-11-14T04:27:56.526Z,99695.34
2022-11-14T04:30:42.242Z,99685.84
2022-11-14T04:33:29.168Z,99692.00
2022-11-14T04:36:14.780Z,99684.16
2022-11-14T04:39:01.479Z,99688.34
2022-11-14T04:41:47.675Z,99676.84
2022-11-14T04:44:33.039Z,99667.81
2022-11-14T04:47:18.811Z,99687.66
2022-11-14T04:50:07.477Z,99698.34
2022-11-14T04:52:53.842Z,99678.97
2022-11-14T04:55:40.106Z,99667.47
2022-11-14T04:58:25.870Z,99672.28
2022-11-14T05:01:14.362Z,99671.94
2022-11-14T05:04:00.753Z,99659.47
2022-11-14T05:06:47.586Z,99639.59
2022-11-14T05:09:32.910Z,99641.91
2022-11-14T05:12:18.846Z,99637.25
2022-11-14T05:15:04.768Z,99640.09
2022-11-14T05:17:50.563Z,99635.09
2022-11-14T05:20:35.941Z,99647.94
2022-11-14T05:23:24.093Z,99637.78
2022-11-14T05:26:17.887Z,99634.25
2022-11-14T05:29:07.261Z,99635.28
2022-11-14T05:31:53.334Z,99653.63
2022-11-14T05:34:38.755Z,99642.59
2022-11-14T05:37:24.025Z,99623.91
2022-11-14T05:40:11.861Z,99625.91
2022-11-14T05:42:57.344Z,99617.31
2022-11-14T05:45:42.939Z,99617.97
2022-11-14T05:48:30.043Z,99626.19
2022-11-14T05:51:15.779Z,99621.81
2022-11-14T05:54:01.773Z,99630.84
2022-11-14T05:56:48.800Z,99631.84
2022-11-14T05:59:35.023Z,99614.44
2022-11-14T06:02:20.939Z,99626.25
2022-11-14T06:05:07.458Z,99623.75
2022-11-14T06:07:56.049Z,99629.63
2022-11-14T06:10:41.635Z,99640.50
2022-11-14T06:13:28.686Z,99639.53
2022-11-14T06:16:50.896Z,99644.69
2022-11-14T06:19:42.603Z,99632.28
2022-11-14T06:22:28.099Z,99641.91
2022-11-14T06:25:13.281Z,99634.75
2022-11-14T06:27:58.944Z,99632.44
2022-11-14T06:30:45.846Z,99635.84
2022-11-14T06:33:46.605Z,99638.63
2022-11-14T06:36:38.488Z,99631.50
2022-11-14T06:39:23.992Z,99626.84
2022-11-14T06:42:09.345Z,99618.94
2022-11-14T06:44:54.526Z,99622.66
2022-11-14T06:47:44.364Z,99620.56
2022-11-14T06:50:30.387Z,99625.53
2022-11-14T06:53:15.962Z,99629.63
2022-11-14T06:56:04.890Z,99633.41
2022-11-14T06:58:50.730Z,99633.69
2022-11-14T07:01:36.360Z,99637.91
2022-11-14T07:04:25.181Z,99636.03
2022-11-14T07:07:11.149Z,99640.66
2022-11-14T07:09:56.689Z,99636.91
2022-11-14T07:12:43.989Z,99638.06
2022-11-14T07:15:30.008Z,99638.63
2022-11-14T07:18:17.511Z,99643.75
2022-11-14T07:21:06.394Z,99647.56
2022-11-14T07:23:53.777Z,99645.72
2022-11-14T07:26:40.285Z,99645.47
2022-11-14T07:29:26.257Z,99646.22
2022-11-14T07:32:12.116Z,99641.81
2022-11-14T07:35:07.452Z,99645.00
2022-11-14T07:38:01.427Z,99637.69
2022-11-14T07:40:59.076Z,99647.31
2022-11-14T07:43:46.235Z,99648.38
2022-11-14T07:46:32.091Z,99648.06
2022-11-14T07:49:17.717Z,99643.91
2022-11-14T07:55:18.291Z,99651.13
2022-11-14T07:58:04.706Z,99658.91
2022-11-14T08:00:50.334Z,99670.78
2022-11-14T08:03:39.731Z,99681.53
2022-11-14T08:06:27.966Z,99684.25
2022-11-14T08:09:13.963Z,99687.63
2022-11-14T08:12:00.862Z,99671.09
2022-11-14T08:14:46.330Z,99676.59
2022-11-14T08:17:32.690Z,99674.00
2022-11-14T08:20:18.668Z,99672.53
2022-11-14T08:23:06.346Z,99673.53
2022-11-14T08:25:52.298Z,99664.34
2022-11-14T08:28:39.431Z,99676.16
2022-11-14T08:31:28.628Z,99679.47
2022-11-14T08:34:14.460Z,99674.06
2022-11-14T08:37:01.386Z,99679.56
2022-11-14T08:39:47.651Z,99675.22
2022-11-14T08:42:33.284Z,99684.66
2022-11-14T08:49:15.435Z,99669.78
2022-11-14T08:52:49.742Z,99673.91
2022-11-14T08:56:22.439Z,99679.03
2022-11-14T08:59:08.126Z,99666.56
2022-11-14T09:01:59.012Z,99670.72
2022-11-14T09:04:53.137Z,99677.69
2022-11-14T09:07:39.110Z,99685.84
2022-11-14T09:13:44.328Z,99687.28
2022-11-14T09:16:30.262Z,99685.16
2022-11-14T09:19:17.709Z,99674.97
2022-11-14T09:22:33.784Z,99668.84
2022-11-14T09:25:31.097Z,99675.09
2022-11-14T09:28:42.823Z,99672.41
2022-11-14T09:31:29.040Z,99678.19
2022-11-14T09:34:28.643Z,99679.03
2022-11-14T09:37:23.464Z,99678.91
2022-11-14T09:54:44.297Z,99665.16
2022-11-14T09:57:30.866Z,99663.63
2022-11-14T10:00:21.024Z,99652.16
2022-11-14T10:03:38.477Z,99652.41
2022-11-14T10:07:11.613Z,99645.09
2022-11-14T10:10:38.999Z,99623.69
2022-11-14T10:14:44.549Z,99631.31
2022-11-14T10:18:18.016Z,99615.22
2022-11-14T10:21:51.148Z,99615.28
2022-11-14T10:25:38.307Z,99618.84
2022-11-14T10:29:44.850Z,99622.34
2022-11-14T10:33:45.798Z,99621.13
2022-11-14T11:27:45.135Z,99583.81
2022-11-14T11:30:34.056Z,99579.69
2022-11-14T11:33:32.811Z,99587.38
2022-11-14T11:36:25.228Z,99584.03
2022-11-14T11:39:30.420Z,99585.22
2022-11-14T11:43:06.240Z,99575.66
2022-11-14T11:45:46.532Z,99561.53
2022-11-14T11:48:39.268Z,99575.50
2022-11-14T11:51:27.604Z,99555.47
2022-11-14T11:54:20.297Z,99558.00
2022-11-14T11:57:21.528Z,99558.78
2022-11-14T12:00:20.616Z,99563.53
2022-11-14T12:03:20.224Z,99555.69
2022-11-14T12:06:35.661Z,99548.00
2022-11-14T12:09:55.723Z,99558.81
2022-11-14T12:13:13.967Z,99556.28
2022-11-14T12:16:20.669Z,99552.31
2022-11-14T12:19:50.925Z,99547.50
2022-11-14T12:23:16.717Z,99540.66
2022-11-14T12:26:30.848Z,99536.31
2022-11-14T12:29:53.232Z,99535.31
2022-11-14T12:32:46.338Z,99531.78
2022-11-14T12:35:35.262Z,99539.09
2022-11-14T12:38:22.911Z,99542.25
2022-11-14T12:41:12.895Z,99530.38
2022-11-14T12:44:32.938Z,99534.50
2022-11-14T12:47:22.147Z,99525.56
2022-11-14T12:50:42.004Z,99528.78
2022-11-14T12:53:46.627Z,99529.63
2022-11-14T12:57:01.045Z,99529.84
2022-11-14T13:00:18.674Z,99520.03
2022-11-14T13:03:40.217Z,99521.97
2022-11-14T13:06:42.563Z,99523.44
2022-11-14T13:10:01.116Z,99519.34
2022-11-14T13:13:09.876Z,99511.56
2022-11-14T13:16:00.779Z,99514.38
2022-11-14T13:19:13.633Z,99505.75
2022-11-14T13:22:43.466Z,99522.03
2022-11-14T13:25:52.155Z,99513.44
2022-11-14T13:28:50.804Z,99506.72
2022-11-14T13:31:49.280Z,99515.66
2022-11-14T13:34:49.201Z,99498.22
2022-11-14T13:38:00.936Z,99502.41
2022-11-14T13:41:01.852Z,99507.03
2022-11-14T13:44:06.401Z,99511.75
2022-11-14T13:47:17.638Z,99509.84
2022-11-14T13:50:07.842Z,99509.06
2022-11-14T13:52:54.884Z,99503.75
2022-11-14T13:56:22.375Z,99503.50
2022-11-14T13:59:55.116Z,99501.75
2022-11-14T14:03:01.146Z,99507.16
2022-11-14T14:06:29.442Z,99496.69
2022-11-14T14:14:49.417Z,99499.66
2022-11-14T14:47:32.654Z,99495.69
2022-11-14T14:50:27.104Z,99495.25
2022-11-14T14:53:20.567Z,99497.84
2022-11-14T14:56:21.930Z,99503.25
2022-11-14T14:59:18.549Z,99491.72
2022-11-14T15:02:16.607Z,99503.06
2022-11-14T15:06:23.734Z,99493.28
2022-11-14T15:08:59.538Z,99493.69
2022-11-14T15:12:08.282Z,99494.41
2022-11-14T15:15:40.187Z,99491.56
2022-11-14T15:19:06.974Z,99497.56
2022-11-14T15:22:30.615Z,99493.47
2022-11-14T15:29:18.172Z,99493.72
2022-11-14T15:32:09.305Z,99504.00
2022-11-14T15:35:11.418Z,99502.94
2022-11-14T15:38:36.823Z,99508.81
2022-11-14T15:41:23.398Z,99512.50
2022-11-14T15:44:29.970Z,99507.19
2022-11-14T15:47:25.135Z,99508.84
2022-11-14T15:50:33.694Z,99508.25
2022-11-14T15:53:27.506Z,99514.97
2022-11-14T15:56:16.157Z,99515.91
2022-11-14T15:59:01.664Z,99518.16
2022-11-14T16:01:54.938Z,99524.16
2022-11-14T16:04:47.093Z,99517.09
2022-11-14T16:07:33.428Z,99525.38
2022-11-14T16:10:28.247Z,99528.22
2022-11-14T16:13:13.794Z,99524.75
2022-11-14T16:15:59.761Z,99532.41
2022-11-14T16:18:46.739Z,99526.50
2022-11-14T16:21:33.450Z,99532.03
2022-11-14T16:24:23.634Z,99527.28
2022-11-14T16:27:11.555Z,99524.94
2022-11-14T16:29:58.208Z,99525.31
2022-11-14T16:32:46.365Z,99531.25
2022-11-14T16:35:32.408Z,99535.28
2022-11-14T16:38:18.320Z,99532.19
2022-11-14T16:41:07.774Z,99543.09
2022-11-14T16:44:16.269Z,99540.84
2022-11-14T16:47:03.501Z,99544.00
2022-11-14T16:49:49.493Z,99555.22
2022-11-14T16:52:37.284Z,99557.84
2022-11-14T16:55:25.139Z,99549.84
2022-11-14T16:58:43.964Z,99556.25
2022-11-14T17:01:30.950Z,99562.47
2022-11-14T17:04:16.039Z,99555.56
2022-11-14T17:07:01.353Z,99558.34
2022-11-14T17:09:47.184Z,99563.41
2022-11-14T17:12:33.866Z,99555.97
2022-11-14T17:15:24.769Z,99559.34
2022-11-14T17:21:40.162Z,99560.63
2022-11-14T17:24:31.317Z,99566.59
2022-11-14T17:36:19.770Z,99572.16
2022-11-14T17:39:06.233Z,99567.59
2022-11-14T17:41:51.741Z,99565.56
2022-11-14T17:44:37.381Z,99568.94
2022-11-14T17:51:23.713Z,99574.34
2022-11-14T17:54:11.716Z,99578.78
2022-11-14T17:56:57.204Z,99578.94
2022-11-14T17:59:48.962Z,99579.31
2022-11-14T18:02:34.884Z,99581.50
2022-11-14T18:05:20.621Z,99584.06
2022-11-14T18:08:07.277Z,99572.72
2022-11-14T18:10:52.909Z,99572.94
2022-11-14T18:13:42.273Z,99575.69
2022-11-14T18:16:44.491Z,99573.13
2022-11-14T18:19:33.154Z,99571.47
2022-11-14T18:22:18.742Z,99566.53
2022-11-14T18:25:08.171Z,99570.53
2022-11-14T18:27:53.860Z,99583.16
2022-11-14T18:30:41.839Z,99569.78
2022-11-14T18:33:27.776Z,99572.69
2022-11-14T18:36:14.050Z,99582.22
2022-11-14T18:39:00.015Z,99580.44
2022-11-14T18:41:48.122Z,99568.50
2022-11-14T18:44:33.819Z,99574.66
2022-11-14T18:47:19.789Z,99573.34
2022-11-14T18:50:06.761Z,99569.63
2022-11-14T18:52:52.304Z,99566.69
2022-11-14T18:55:39.376Z,99578.50
2022-11-14T18:58:26.482Z,99577.59
2022-11-14T19:01:14.560Z,99576.16
2022-11-14T19:04:02.417Z,99580.22
2022-11-14T19:06:49.375Z,99589.31
2022-11-14T19:09:35.263Z,99592.75
2022-11-14T19:12:20.819Z,99575.91
2022-11-14T19:15:09.844Z,99575.06
2022-11-14T19:17:56.615Z,99586.13
2022-11-14T19:20:42.188Z,99573.44
2022-11-14T19:23:28.917Z,99579.06
2022-11-14T19:26:14.935Z,99582.13
2022-11-14T19:29:04.975Z,99574.38
2022-11-14T19:31:52.358Z,99579.19
2022-11-14T19:38:13.612Z,99574.75
2022-11-14T19:41:04.977Z,99580.88
2022-11-14T19:43:54.598Z,99588.38
2022-11-14T19:46:44.368Z,99589.16
2022-11-14T19:49:35.258Z,99586.16
2022-11-14T19:52:20.918Z,99588.81
2022-11-14T19:55:07.000Z,99588.06
2022-11-14T19:57:52.574Z,99582.72
2022-11-14T20:00:38.826Z,99587.22
2022-11-14T20:03:24.483Z,99587.28
2022-11-14T20:06:20.395Z,99585.34
2022-11-14T20:09:09.526Z,99593.00
2022-11-14T20:11:55.704Z,99585.56
2022-11-14T20:14:41.412Z,99586.81
2022-11-14T20:17:29.856Z,99586.81
2022-11-14T20:20:16.419Z,99591.56
2022-11-14T20:23:03.659Z,99590.75
2022-11-14T20:25:51.173Z,99588.28
2022-11-14T20:28:37.518Z,99592.69
2022-11-14T20:31:26.295Z,99605.09
2022-11-14T20:34:12.049Z,99591.34
2022-11-14T20:37:11.048Z,99590.53
2022-11-14T20:39:58.630Z,99589.94
2022-11-14T20:42:47.278Z,99598.28
2022-11-14T20:45:33.395Z,99592.19
2022-11-14T20:48:19.051Z,99592.53
2022-11-14T20:51:07.055Z,99591.97
2022-11-14T20:53:55.104Z,99597.06
2022-11-14T20:56:41.888Z,99581.56
2022-11-14T20:59:27.963Z,99584.97
2022-11-14T21:02:13.787Z,99592.69
2022-11-14T21:05:00.377Z,99594.59
2022-11-14T21:07:46.304Z,99589.84
2022-11-14T21:10:37.043Z,99595.94
2022-11-14T21:13:23.744Z,99585.94
2022-11-14T21:16:12.381Z,99589.25
2022-11-14T21:18:59.445Z,99588.56
2022-11-14T21:21:45.149Z,99588.56
2022-11-14T21:24:30.471Z,99590.22
2022-11-14T21:27:16.104Z,99589.41
2022-11-14T21:30:03.877Z,99583.00
2022-11-14T21:32:49.097Z,99582.41
2022-11-14T21:35:34.770Z,99571.72
2022-11-14T21:38:20.672Z,99570.97
2022-11-14T21:41:07.051Z,99580.81
2022-11-14T21:43:54.324Z,99574.94
2022-11-14T21:46:41.918Z,99574.47
2022-11-14T21:49:27.421Z,99571.78
2022-11-14T21:52:13.247Z,99577.66
2022-11-14T21:54:59.125Z,99566.81
2022-11-14T21:57:44.365Z,99572.69
2022-11-14T22:00:29.860Z,99569.63
2022-11-14T22:03:20.950Z,99571.13
2022-11-14T22:06:06.707Z,99570.31
2022-11-14T22:08:54.867Z,99568.94
2022-11-14T22:11:40.420Z,99569.16
2022-11-14T22:14:27.095Z,99568.09
2022-11-14T22:17:13.579Z,99566.69
2022-11-14T22:20:00.491Z,99569.41
2022-11-14T22:22:45.885Z,99560.31
2022-11-14T22:25:33.480Z,99574.88
2022-11-14T22:28:19.285Z,99575.31
2022-11-14T22:31:09.493Z,99580.38
2022-11-14T22:33:58.433Z,99578.78
2022-11-14T22:36:45.690Z,99579.38
2022-11-14T22:39:31.142Z,99577.72
2022-11-14T22:42:16.365Z,99577.50
2022-11-14T22:45:02.301Z,99581.06
2022-11-14T22:47:48.601Z,99578.34
2022-11-14T22:50:43.451Z,99581.78
2022-11-14T22:53:33.326Z,99587.22
2022-11-14T22:56:21.888Z,99586.53
2022-11-14T22:59:07.609Z,99581.13
2022-11-14T23:01:54.916Z,99578.81
2022-11-14T23:04:40.173Z,99587.38
2022-11-14T23:07:25.494Z,99590.66
2022-11-14T23:10:12.697Z,99583.59
2022-11-14T23:13:01.046Z,99589.19
2022-11-14T23:15:47.710Z,99581.06
2022-11-14T23:18:33.912Z,99583.16
2022-11-14T23:21:23.026Z,99579.63
2022-11-14T23:24:13.764Z,99579.53
2022-11-14T23:27:01.203Z,99581.41
2022-11-14T23:29:46.942Z,99574.06
2022-11-14T23:32:32.111Z,99580.59
2022-11-14T23:35:18.111Z,99585.09
2022-11-14T23:38:04.444Z,99582.59
2022-11-14T23:40:53.213Z,99576.50
2022-11-14T23:43:40.335Z,99574.47
2022-11-14T23:46:25.467Z,99572.09
2022-11-14T23:49:11.500Z,99584.19
2022-11-14T23:51:57.348Z,99570.97
2022-11-14T23:54:42.949Z,99558.84
2022-11-14T23:57:31.075Z,99562.84
